PILOTS ONLINE: 327    ATC ONLINE: 36

CBBC

Bella Bella (Campbell Island) Airport

Location

City Bella Bella
Country  Canada
Latitude 52° 11' 6" N
Longitude 128° 9' 25" W
Elevation 141 ft
Type Small Airport

Map

Weather

METAR
2014/08/23 03:00
CBBC 230300Z AUTO 30003KT 250V340 9SM CLR 23/10 A3015 RMK SLP210 DENSITY ALT 800FT
TAF
2014/08/23 01:00
TAF CBBC 230038Z 2301/2305 33007KT P6SM FEW220 
      RMK FCST BASED ON AUTO OBS. NXT FCST WILL BE ISSUED AT 231245Z

Runways

13/31 3700 ft / 75 ft

Outbound flights

Callsign Flying to Pilot ATD/STD ETA Aircraft

Inbound flights

Callsign Flying from Pilot ATD ETA Aircraft